Time;durP1;ratioP1;P1;durP2;ratioP2;P2;SDS_P1;SDS_P2;PMS_P1;PMS_P2;Temp;Humidity;BMP_temperature;BMP_pressure;BME280_temperature;BME280_humidity;BME280_pressure;Samples;Min_cycle;Max_cycle;Signal;HPM_P1;HPM_P2
2022/09/26 00:01:41;;;;;;;;;;;20.90;42.00;;;;;;485773;245;1292;-50
2022/09/26 00:03:42;;;;;;;;;;;20.90;42.00;;;;;;485282;245;1288;-50
2022/09/26 00:05:43;;;;;;;;;;;20.90;42.00;;;;;;485760;245;1356;-50
2022/09/26 00:07:45;;;;;;;;;;;20.90;42.00;;;;;;485527;245;1311;-51
2022/09/26 00:09:47;;;;;;;;;;;20.90;42.00;;;;;;485289;245;1364;-50
2022/09/26 00:11:47;;;;;;;;;;;20.90;42.10;;;;;;485301;245;2398;-50
2022/09/26 00:13:49;;;;;;;;;;;20.90;42.10;;;;;;485445;245;1344;-50
2022/09/26 00:15:50;;;;;;;;;;;20.90;42.10;;;;;;485458;245;1326;-50
2022/09/26 00:17:51;;;;;;;;;;;20.90;42.10;;;;;;485653;245;1316;-51
2022/09/26 00:19:53;;;;;;;;;;;20.90;42.20;;;;;;485262;245;2191;-51
2022/09/26 00:21:54;;;;;;;;;;;20.90;42.20;;;;;;485758;245;1723;-50
2022/09/26 00:23:55;;;;;;;;;;;20.90;42.20;;;;;;485649;245;1361;-51
2022/09/26 00:25:57;;;;;;;;;;;20.90;42.20;;;;;;485310;245;1404;-50
2022/09/26 00:27:58;;;;;;;;;;;20.90;42.20;;;;;;485321;245;1298;-50
2022/09/26 00:29:59;;;;;;;;;;;20.90;42.20;;;;;;485699;245;1297;-50
2022/09/26 00:32:01;;;;;;;;;;;20.90;42.20;;;;;;485759;245;1281;-51
2022/09/26 00:34:02;;;;;;;;;;;20.90;42.20;;;;;;485296;245;1205;-50
2022/09/26 00:36:03;;;;;;;;;;;20.90;42.20;;;;;;485743;245;1276;-51
2022/09/26 00:38:05;;;;;;;;;;;20.90;42.20;;;;;;485767;245;1291;-51
2022/09/26 00:40:06;;;;;;;;;;;20.90;42.30;;;;;;485361;245;2164;-51
2022/09/26 00:42:07;;;;;;;;;;;20.90;42.30;;;;;;485765;245;1322;-51
2022/09/26 00:44:09;;;;;;;;;;;20.90;42.30;;;;;;485289;245;1290;-51
2022/09/26 00:46:10;;;;;;;;;;;20.90;42.30;;;;;;485770;245;1271;-50
2022/09/26 00:48:11;;;;;;;;;;;20.90;42.30;;;;;;485337;245;1473;-51
2022/09/26 00:50:13;;;;;;;;;;;20.90;42.30;;;;;;485323;246;1381;-51
2022/09/26 00:52:14;;;;;;;;;;;20.90;42.30;;;;;;485762;245;1285;-50
2022/09/26 00:54:15;;;;;;;;;;;20.90;42.30;;;;;;485624;245;1333;-50
2022/09/26 00:56:17;;;;;;;;;;;20.90;42.30;;;;;;485555;245;1277;-50
2022/09/26 00:58:18;;;;;;;;;;;20.80;42.30;;;;;;485494;245;1191;-50
2022/09/26 01:00:19;;;;;;;;;;;20.80;42.30;;;;;;485288;245;2167;-50
2022/09/26 01:02:23;;;;;;;;;;;20.90;42.40;;;;;;485312;245;1335;-50
2022/09/26 01:04:22;;;;;;;;;;;20.90;42.30;;;;;;485158;246;2236;-51
2022/09/26 01:06:23;;;;;;;;;;;20.80;42.30;;;;;;485744;245;1266;-50
2022/09/26 01:08:24;;;;;;;;;;;20.80;42.40;;;;;;485765;245;1234;-51
2022/09/26 01:10:26;;;;;;;;;;;20.80;42.40;;;;;;485468;245;1193;-50
2022/09/26 01:12:27;;;;;;;;;;;20.80;42.40;;;;;;485503;245;1226;-50
2022/09/26 01:14:29;;;;;;;;;;;20.80;42.40;;;;;;485384;245;1308;-51
2022/09/26 01:16:32;;;;;;;;;;;20.80;42.40;;;;;;485316;245;1313;-51
2022/09/26 01:18:32;;;;;;;;;;;20.80;42.50;;;;;;485710;246;1526;-50
2022/09/26 01:20:37;;;;;;;;;;;20.80;42.50;;;;;;485583;245;2179;-50
2022/09/26 01:22:38;;;;;;;;;;;20.80;42.50;;;;;;485357;245;1253;-50
2022/09/26 01:24:39;;;;;;;;;;;20.80;42.50;;;;;;485306;245;1243;-51
2022/09/26 01:26:41;;;;;;;;;;;20.80;42.50;;;;;;485466;245;1353;-50
2022/09/26 01:28:42;;;;;;;;;;;20.80;42.50;;;;;;485391;245;1283;-51
2022/09/26 01:30:43;;;;;;;;;;;20.80;42.50;;;;;;485657;245;1303;-50
2022/09/26 01:32:50;;;;;;;;;;;20.80;42.50;;;;;;485686;245;1353;-50
2022/09/26 01:34:52;;;;;;;;;;;20.80;42.50;;;;;;485723;245;1603;-50
2022/09/26 01:36:53;;;;;;;;;;;20.80;42.40;;;;;;485386;245;1451;-50
2022/09/26 01:38:55;;;;;;;;;;;20.90;42.60;;;;;;485326;245;1291;-51
2022/09/26 01:40:56;;;;;;;;;;;20.80;42.50;;;;;;485294;245;2172;-51
2022/09/26 01:42:58;;;;;;;;;;;20.80;42.50;;;;;;485320;245;1298;-50
2022/09/26 01:44:59;;;;;;;;;;;20.80;42.50;;;;;;485359;245;1972;-50
2022/09/26 01:47:00;;;;;;;;;;;20.80;42.50;;;;;;485387;245;1235;-51
2022/09/26 01:49:02;;;;;;;;;;;20.90;42.60;;;;;;485533;245;1159;-51
2022/09/26 01:51:03;;;;;;;;;;;20.90;42.50;;;;;;485364;245;1382;-50
2022/09/26 01:53:04;;;;;;;;;;;20.80;42.50;;;;;;485838;245;1308;-50
2022/09/26 01:55:06;;;;;;;;;;;20.90;42.60;;;;;;485742;245;1310;-50
2022/09/26 01:57:07;;;;;;;;;;;20.80;42.60;;;;;;485782;245;1158;-51
2022/09/26 01:59:08;;;;;;;;;;;20.80;42.60;;;;;;485806;245;1343;-50
2022/09/26 02:01:10;;;;;;;;;;;20.80;42.60;;;;;;485747;245;2210;-51
2022/09/26 02:03:11;;;;;;;;;;;20.80;42.60;;;;;;485805;245;1239;-51
2022/09/26 02:05:12;;;;;;;;;;;20.80;42.60;;;;;;485572;245;1327;-50
2022/09/26 02:07:14;;;;;;;;;;;20.80;42.60;;;;;;485536;245;1431;-51
2022/09/26 02:09:15;;;;;;;;;;;20.90;42.60;;;;;;485489;245;1316;-51
2022/09/26 02:11:17;;;;;;;;;;;20.90;42.60;;;;;;485349;245;1357;-51
2022/09/26 02:13:18;;;;;;;;;;;20.80;42.60;;;;;;485773;245;1805;-50
2022/09/26 02:15:19;;;;;;;;;;;20.80;42.60;;;;;;485772;245;1229;-51
2022/09/26 02:17:21;;;;;;;;;;;20.90;42.60;;;;;;485638;245;1259;-51
2022/09/26 02:19:22;;;;;;;;;;;20.80;42.60;;;;;;485422;245;1424;-50
2022/09/26 02:21:23;;;;;;;;;;;20.80;42.70;;;;;;485738;246;2190;-50
2022/09/26 02:23:24;;;;;;;;;;;20.80;42.70;;;;;;485784;245;1233;-51
2022/09/26 02:25:26;;;;;;;;;;;20.90;42.80;;;;;;485702;245;1345;-51
2022/09/26 02:27:27;;;;;;;;;;;20.80;42.70;;;;;;485732;245;1466;-50
2022/09/26 02:29:28;;;;;;;;;;;20.80;42.70;;;;;;485402;245;1354;-51
2022/09/26 02:31:30;;;;;;;;;;;20.80;42.70;;;;;;485442;245;1330;-51
2022/09/26 02:33:31;;;;;;;;;;;20.80;42.70;;;;;;485760;245;1329;-50
2022/09/26 02:37:59;;;;;;;;;;;20.80;42.80;;;;;;483760;246;1705;-50
2022/09/26 02:40:00;;;;;;;;;;;20.80;42.80;;;;;;485335;245;1232;-50
2022/09/26 02:42:01;;;;;;;;;;;20.80;42.80;;;;;;485409;245;2171;-51
2022/09/26 02:44:03;;;;;;;;;;;20.80;42.80;;;;;;485349;245;1161;-51
2022/09/26 02:46:04;;;;;;;;;;;20.90;42.80;;;;;;485822;245;1280;-50
2022/09/26 02:48:07;;;;;;;;;;;20.90;42.70;;;;;;485831;245;1252;-51
2022/09/26 02:50:07;;;;;;;;;;;20.90;42.50;;;;;;485556;245;1413;-51
2022/09/26 02:52:08;;;;;;;;;;;20.90;42.40;;;;;;485375;245;1331;-50
2022/09/26 02:54:09;;;;;;;;;;;20.90;42.40;;;;;;485814;245;1117;-51
2022/09/26 02:56:13;;;;;;;;;;;20.90;42.30;;;;;;485430;245;1260;-51
2022/09/26 02:58:12;;;;;;;;;;;20.90;42.20;;;;;;485223;246;2435;-51
2022/09/26 03:00:16;;;;;;;;;;;20.90;42.20;;;;;;485609;245;1365;-51
2022/09/26 03:02:15;;;;;;;;;;;20.90;42.20;;;;;;485596;246;2240;-51
2022/09/26 03:04:17;;;;;;;;;;;20.90;42.20;;;;;;485550;245;1348;-51
2022/09/26 03:06:17;;;;;;;;;;;20.90;42.20;;;;;;485340;245;1462;-51
2022/09/26 03:08:19;;;;;;;;;;;21.00;42.20;;;;;;485361;245;1254;-51
2022/09/26 03:10:20;;;;;;;;;;;21.00;42.10;;;;;;485795;245;1316;-50
2022/09/26 03:12:21;;;;;;;;;;;21.00;42.00;;;;;;485452;245;1254;-51
2022/09/26 03:14:23;;;;;;;;;;;21.00;42.00;;;;;;485777;245;1322;-51
2022/09/26 03:16:24;;;;;;;;;;;21.00;41.90;;;;;;485792;245;1183;-50
2022/09/26 03:18:27;;;;;;;;;;;21.00;41.80;;;;;;485775;245;1167;-51
2022/09/26 03:20:27;;;;;;;;;;;21.00;41.80;;;;;;485713;246;2243;-50
2022/09/26 03:22:28;;;;;;;;;;;21.00;41.80;;;;;;485320;245;2191;-50
2022/09/26 03:24:29;;;;;;;;;;;21.00;41.80;;;;;;485681;245;1253;-51
2022/09/26 03:26:31;;;;;;;;;;;21.00;41.70;;;;;;485655;245;1207;-50
2022/09/26 03:28:32;;;;;;;;;;;21.00;41.60;;;;;;485770;245;1315;-51
2022/09/26 03:30:33;;;;;;;;;;;21.00;41.60;;;;;;485485;245;1206;-51
2022/09/26 03:32:36;;;;;;;;;;;21.00;41.50;;;;;;485792;245;1238;-50
2022/09/26 03:34:38;;;;;;;;;;;21.00;41.50;;;;;;485692;245;2180;-51
2022/09/26 03:36:39;;;;;;;;;;;21.00;41.50;;;;;;485782;245;2261;-51
2022/09/26 03:38:40;;;;;;;;;;;21.00;41.50;;;;;;485767;245;1255;-50
2022/09/26 03:40:42;;;;;;;;;;;21.00;41.60;;;;;;485773;245;1291;-51
2022/09/26 03:42:45;;;;;;;;;;;21.00;41.50;;;;;;485397;245;2116;-50
2022/09/26 03:44:44;;;;;;;;;;;21.00;41.40;;;;;;485210;246;1896;-50
2022/09/26 03:46:46;;;;;;;;;;;21.00;41.40;;;;;;485321;245;1543;-50
2022/09/26 03:48:49;;;;;;;;;;;21.00;41.40;;;;;;485279;245;1507;-50
2022/09/26 03:50:50;;;;;;;;;;;21.00;41.30;;;;;;485707;245;1684;-50
2022/09/26 03:52:51;;;;;;;;;;;21.00;41.30;;;;;;485693;245;1291;-51
2022/09/26 03:54:52;;;;;;;;;;;21.00;41.20;;;;;;485747;245;1365;-51
2022/09/26 03:56:54;;;;;;;;;;;21.00;41.20;;;;;;485282;245;1275;-51
2022/09/26 03:58:56;;;;;;;;;;;21.00;41.10;;;;;;485740;245;1228;-51
2022/09/26 04:00:57;;;;;;;;;;;21.00;41.10;;;;;;485708;245;2183;-51
2022/09/26 04:02:59;;;;;;;;;;;21.00;41.10;;;;;;485752;245;1301;-50
2022/09/26 04:05:00;;;;;;;;;;;21.00;41.00;;;;;;485325;245;2395;-50
2022/09/26 04:07:01;;;;;;;;;;;21.00;41.00;;;;;;485592;245;1425;-50
2022/09/26 04:09:03;;;;;;;;;;;21.00;40.90;;;;;;485623;245;1283;-51
2022/09/26 04:11:04;;;;;;;;;;;21.00;41.00;;;;;;485773;245;1308;-50
2022/09/26 04:13:05;;;;;;;;;;;21.10;40.80;;;;;;485436;245;1303;-50
2022/09/26 04:15:06;;;;;;;;;;;21.20;40.70;;;;;;485352;245;1255;-50
2022/09/26 04:17:08;;;;;;;;;;;21.10;40.60;;;;;;485335;245;1272;-51
2022/09/26 04:19:10;;;;;;;;;;;21.20;40.60;;;;;;485301;245;1360;-51
2022/09/26 04:21:11;;;;;;;;;;;21.20;40.50;;;;;;485690;246;2155;-50
2022/09/26 04:23:12;;;;;;;;;;;21.20;40.60;;;;;;485727;245;1282;-50
2022/09/26 04:25:14;;;;;;;;;;;21.10;40.70;;;;;;485315;245;1183;-51
2022/09/26 04:27:15;;;;;;;;;;;21.10;40.70;;;;;;485274;245;1302;-51
2022/09/26 04:29:16;;;;;;;;;;;21.10;40.70;;;;;;485706;245;1335;-50
2022/09/26 04:31:20;;;;;;;;;;;21.10;40.70;;;;;;485430;245;1206;-50
2022/09/26 04:33:20;;;;;;;;;;;21.10;40.70;;;;;;485602;246;1859;-50
2022/09/26 04:35:20;;;;;;;;;;;21.10;40.60;;;;;;485278;245;1563;-50
2022/09/26 04:37:22;;;;;;;;;;;21.10;40.60;;;;;;485318;245;1344;-50
2022/09/26 04:39:23;;;;;;;;;;;21.10;40.70;;;;;;485491;245;1286;-51
2022/09/26 04:41:24;;;;;;;;;;;21.10;40.70;;;;;;485731;245;2151;-50
2022/09/26 04:43:25;;;;;;;;;;;21.10;40.70;;;;;;485352;245;1320;-50
2022/09/26 04:45:27;;;;;;;;;;;21.00;40.60;;;;;;485531;245;1734;-51
2022/09/26 04:47:28;;;;;;;;;;;21.10;40.70;;;;;;485719;245;1257;-52
2022/09/26 04:49:29;;;;;;;;;;;21.10;40.70;;;;;;485703;245;1232;-51
2022/09/26 04:51:31;;;;;;;;;;;21.10;40.70;;;;;;485766;245;1268;-51
2022/09/26 04:53:32;;;;;;;;;;;21.10;40.60;;;;;;485476;245;1507;-50
2022/09/26 04:55:34;;;;;;;;;;;21.10;40.60;;;;;;485361;245;1331;-51
2022/09/26 04:57:36;;;;;;;;;;;21.10;40.60;;;;;;485602;245;1295;-51
2022/09/26 04:59:36;;;;;;;;;;;21.00;40.50;;;;;;485217;246;1682;-50
2022/09/26 05:01:38;;;;;;;;;;;21.00;40.50;;;;;;485655;245;2175;-51
2022/09/26 05:03:39;;;;;;;;;;;21.00;40.50;;;;;;485419;245;1199;-50
2022/09/26 05:05:40;;;;;;;;;;;21.00;40.50;;;;;;485309;245;1300;-50
2022/09/26 05:07:42;;;;;;;;;;;21.00;40.60;;;;;;485237;245;1205;-51
2022/09/26 05:09:43;;;;;;;;;;;21.00;40.50;;;;;;485260;245;1238;-51
2022/09/26 05:11:44;;;;;;;;;;;21.00;40.50;;;;;;485246;245;1396;-51
2022/09/26 05:13:47;;;;;;;;;;;21.00;40.40;;;;;;485259;245;1196;-50
2022/09/26 05:15:49;;;;;;;;;;;21.00;40.50;;;;;;485559;246;2511;-50
2022/09/26 05:17:48;;;;;;;;;;;21.00;40.40;;;;;;485234;246;2392;-51
2022/09/26 05:19:49;;;;;;;;;;;21.00;40.30;;;;;;485545;245;1194;-51
2022/09/26 05:21:51;;;;;;;;;;;21.00;40.30;;;;;;485254;245;2199;-51
2022/09/26 05:26:21;;;;;;;;;;;21.00;40.40;;;;;;485588;246;1247;-50
2022/09/26 05:28:22;;;;;;;;;;;21.00;40.30;;;;;;485195;245;1221;-50
2022/09/26 05:30:24;;;;;;;;;;;21.00;40.30;;;;;;485297;245;1265;-50
2022/09/26 05:32:27;;;;;;;;;;;21.00;40.40;;;;;;485645;245;1337;-50
2022/09/26 05:34:26;;;;;;;;;;;21.00;40.50;;;;;;485452;246;2231;-52
2022/09/26 05:36:28;;;;;;;;;;;21.00;40.50;;;;;;485254;245;1241;-51
2022/09/26 05:38:29;;;;;;;;;;;21.00;40.40;;;;;;485323;245;1254;-50
2022/09/26 05:42:50;;;;;;;;;;;21.00;40.40;;;;;;485666;246;2176;-51
2022/09/26 05:44:52;;;;;;;;;;;21.00;40.40;;;;;;485407;245;1315;-51
2022/09/26 05:46:52;;;;;;;;;;;21.00;40.30;;;;;;485536;245;2355;-51
2022/09/26 05:48:54;;;;;;;;;;;21.00;40.30;;;;;;485702;245;1261;-50
2022/09/26 05:50:55;;;;;;;;;;;21.00;40.30;;;;;;485600;245;1267;-50
2022/09/26 05:52:56;;;;;;;;;;;21.00;40.30;;;;;;485231;245;1300;-51
2022/09/26 05:54:58;;;;;;;;;;;21.00;40.30;;;;;;485703;245;1242;-50
2022/09/26 05:56:59;;;;;;;;;;;21.00;40.30;;;;;;485709;245;1267;-50
2022/09/26 05:59:00;;;;;;;;;;;21.00;40.30;;;;;;485463;245;1279;-51
2022/09/26 06:01:02;;;;;;;;;;;21.00;40.30;;;;;;484923;245;1226;-50
2022/09/26 06:03:03;;;;;;;;;;;21.00;40.20;;;;;;484609;245;2187;-51
2022/09/26 06:05:04;;;;;;;;;;;21.10;40.20;;;;;;484767;245;1173;-51
2022/09/26 06:07:06;;;;;;;;;;;21.00;40.20;;;;;;485445;245;1178;-51
2022/09/26 06:09:07;;;;;;;;;;;21.00;40.20;;;;;;485104;245;1194;-50
2022/09/26 06:11:08;;;;;;;;;;;21.00;40.20;;;;;;485647;245;1224;-51
2022/09/26 06:13:14;;;;;;;;;;;21.10;40.30;;;;;;485061;245;1244;-51
2022/09/26 06:15:11;;;;;;;;;;;21.00;40.20;;;;;;484799;246;2334;-51
2022/09/26 06:17:12;;;;;;;;;;;21.00;40.10;;;;;;485037;245;1240;-51
2022/09/26 06:19:14;;;;;;;;;;;21.00;40.20;;;;;;485237;245;1428;-51
2022/09/26 06:21:15;;;;;;;;;;;21.00;40.30;;;;;;485004;245;1367;-50
2022/09/26 06:23:16;;;;;;;;;;;21.10;40.30;;;;;;485114;245;2160;-51
2022/09/26 06:25:18;;;;;;;;;;;21.00;40.20;;;;;;485580;245;1269;-51
2022/09/26 06:27:19;;;;;;;;;;;21.00;40.20;;;;;;485074;245;1268;-51
2022/09/26 06:29:20;;;;;;;;;;;21.00;40.30;;;;;;485000;245;1205;-51
2022/09/26 06:31:22;;;;;;;;;;;21.00;40.20;;;;;;485086;245;1381;-51
2022/09/26 06:33:23;;;;;;;;;;;21.10;40.20;;;;;;484979;245;1346;-50
2022/09/26 06:35:24;;;;;;;;;;;21.00;40.20;;;;;;485117;245;1235;-51
2022/09/26 06:37:26;;;;;;;;;;;21.10;40.20;;;;;;485504;245;1237;-50
2022/09/26 06:39:34;;;;;;;;;;;21.10;40.10;;;;;;485334;245;1179;-50
2022/09/26 06:41:29;;;;;;;;;;;21.10;40.10;;;;;;484599;246;1979;-50
2022/09/26 06:43:30;;;;;;;;;;;21.10;40.40;;;;;;484968;245;2206;-51
2022/09/26 06:45:32;;;;;;;;;;;21.10;40.40;;;;;;484326;245;1382;-51
2022/09/26 06:47:33;;;;;;;;;;;21.00;40.50;;;;;;485267;245;1310;-50
2022/09/26 06:49:34;;;;;;;;;;;21.10;40.50;;;;;;485021;245;1273;-51
2022/09/26 06:51:36;;;;;;;;;;;21.00;40.40;;;;;;484417;245;1526;-51
2022/09/26 06:53:38;;;;;;;;;;;21.00;40.40;;;;;;484474;245;1206;-50
2022/09/26 06:55:39;;;;;;;;;;;21.10;40.50;;;;;;484683;245;1183;-51
2022/09/26 06:57:41;;;;;;;;;;;21.10;40.50;;;;;;484762;245;1285;-51
2022/09/26 06:59:42;;;;;;;;;;;21.10;40.50;;;;;;484908;245;1449;-50
2022/09/26 07:01:44;;;;;;;;;;;21.10;40.60;;;;;;484992;245;1156;-51
2022/09/26 07:03:45;;;;;;;;;;;21.10;40.50;;;;;;484323;245;2195;-51
2022/09/26 07:05:46;;;;;;;;;;;21.10;40.50;;;;;;484970;245;1035;-51
2022/09/26 07:07:47;;;;;;;;;;;21.10;40.60;;;;;;484553;245;1087;-51
2022/09/26 07:09:49;;;;;;;;;;;21.10;40.60;;;;;;485428;245;1281;-50
2022/09/26 07:11:50;;;;;;;;;;;21.00;40.50;;;;;;485080;245;1352;-51
2022/09/26 07:13:54;;;;;;;;;;;21.10;40.60;;;;;;484875;245;1203;-51
2022/09/26 07:15:55;;;;;;;;;;;21.10;40.50;;;;;;484957;245;1279;-50
2022/09/26 07:18:00;;;;;;;;;;;21.10;40.60;;;;;;484431;245;1251;-51
2022/09/26 07:19:58;;;;;;;;;;;21.10;40.60;;;;;;484633;246;2107;-51
2022/09/26 07:21:59;;;;;;;;;;;21.10;40.50;;;;;;485501;245;1199;-50
2022/09/26 07:24:00;;;;;;;;;;;21.10;40.40;;;;;;485028;245;2115;-51
2022/09/26 07:26:02;;;;;;;;;;;21.10;40.50;;;;;;485053;245;1214;-50
2022/09/26 07:28:03;;;;;;;;;;;21.10;40.50;;;;;;484876;245;1247;-51
2022/09/26 07:30:05;;;;;;;;;;;21.10;40.50;;;;;;484993;245;1227;-51
2022/09/26 07:32:06;;;;;;;;;;;21.10;40.50;;;;;;484614;245;1657;-50
2022/09/26 07:34:08;;;;;;;;;;;21.10;40.60;;;;;;484791;245;1289;-50
2022/09/26 07:36:09;;;;;;;;;;;21.10;40.50;;;;;;484697;245;1383;-50
2022/09/26 07:38:11;;;;;;;;;;;21.10;40.40;;;;;;485004;245;1321;-50
2022/09/26 07:40:12;;;;;;;;;;;21.20;40.60;;;;;;484931;246;1573;-50
2022/09/26 07:42:13;;;;;;;;;;;21.10;40.50;;;;;;484821;245;2200;-50
2022/09/26 07:44:14;;;;;;;;;;;21.20;40.50;;;;;;485166;245;1360;-50
2022/09/26 07:50:58;;;;;;;;;;;21.20;40.40;;;;;;485129;246;1192;-50
2022/09/26 07:53:00;;;;;;;;;;;21.20;40.60;;;;;;485037;245;1201;-50
2022/09/26 07:55:01;;;;;;;;;;;21.20;40.50;;;;;;485353;245;1361;-51
2022/09/26 07:57:03;;;;;;;;;;;21.20;40.50;;;;;;484949;245;1181;-50
2022/09/26 07:59:04;;;;;;;;;;;21.20;40.50;;;;;;485040;246;2532;-50
2022/09/26 08:01:05;;;;;;;;;;;21.20;40.60;;;;;;484999;245;1243;-51
2022/09/26 08:03:07;;;;;;;;;;;21.20;40.70;;;;;;484943;245;2199;-50
2022/09/26 08:05:08;;;;;;;;;;;21.20;40.70;;;;;;485156;245;1203;-51
2022/09/26 08:07:11;;;;;;;;;;;21.20;40.60;;;;;;485229;245;1272;-50
2022/09/26 08:09:11;;;;;;;;;;;21.20;40.70;;;;;;484626;246;2359;-50
2022/09/26 08:11:14;;;;;;;;;;;21.20;40.70;;;;;;484977;245;1804;-50
2022/09/26 08:13:14;;;;;;;;;;;21.20;40.60;;;;;;484960;246;1827;-51
2022/09/26 08:15:15;;;;;;;;;;;21.20;40.70;;;;;;503465;237;1399;-50
2022/09/26 08:17:16;;;;;;;;;;;21.20;40.70;;;;;;503332;237;1150;-50
2022/09/26 08:19:18;;;;;;;;;;;21.20;40.70;;;;;;503400;237;1175;-50
2022/09/26 08:21:19;;;;;;;;;;;21.20;40.70;;;;;;480405;247;1383;-50
2022/09/26 08:23:20;;;;;;;;;;;21.20;40.70;;;;;;488745;244;2194;-50
2022/09/26 08:25:22;;;;;;;;;;;21.20;40.80;;;;;;480038;248;1199;-50
2022/09/26 08:27:23;;;;;;;;;;;21.30;40.90;;;;;;485130;246;1192;-50
2022/09/26 08:29:24;;;;;;;;;;;21.30;40.80;;;;;;485060;245;1156;-50
2022/09/26 08:31:27;;;;;;;;;;;21.30;40.80;;;;;;484955;242;1270;-51
2022/09/26 08:33:27;;;;;;;;;;;21.30;40.80;;;;;;484916;245;1453;-50
2022/09/26 08:35:35;;;;;;;;;;;21.30;40.80;;;;;;484944;245;1286;-51
2022/09/26 08:37:31;;;;;;;;;;;21.30;40.80;;;;;;484203;246;2000;-51
2022/09/26 08:39:32;;;;;;;;;;;21.30;40.80;;;;;;484940;245;1358;-50
2022/09/26 08:41:33;;;;;;;;;;;21.30;40.70;;;;;;484693;245;1686;-51
2022/09/26 08:43:34;;;;;;;;;;;21.30;40.70;;;;;;485327;245;2207;-51
2022/09/26 08:47:55;;;;;;;;;;;21.30;40.70;;;;;;484874;246;1236;-51
2022/09/26 08:49:58;;;;;;;;;;;21.30;40.80;;;;;;485016;245;1656;-51
2022/09/26 08:51:58;;;;;;;;;;;21.30;40.80;;;;;;484893;246;1754;-51
2022/09/26 08:53:59;;;;;;;;;;;21.20;40.70;;;;;;485090;245;1303;-51
2022/09/26 08:56:01;;;;;;;;;;;21.30;40.80;;;;;;485005;245;1379;-51
2022/09/26 08:58:02;;;;;;;;;;;21.30;40.80;;;;;;485250;245;1415;-50
2022/09/26 09:00:07;;;;;;;;;;;21.20;40.70;;;;;;485459;245;1191;-50
2022/09/26 09:02:05;;;;;;;;;;;21.30;40.90;;;;;;484832;246;2647;-50
2022/09/26 09:04:06;;;;;;;;;;;21.30;40.80;;;;;;484912;245;2156;-51
2022/09/26 09:06:08;;;;;;;;;;;21.30;40.70;;;;;;485099;245;1199;-50
2022/09/26 09:08:09;;;;;;;;;;;21.30;40.80;;;;;;485063;245;1281;-51
2022/09/26 09:10:10;;;;;;;;;;;21.30;40.70;;;;;;484970;245;1255;-51
2022/09/26 09:12:11;;;;;;;;;;;21.30;40.60;;;;;;484983;245;1167;-50
2022/09/26 09:14:13;;;;;;;;;;;21.30;40.70;;;;;;484964;245;1229;-51
2022/09/26 09:16:14;;;;;;;;;;;21.30;40.70;;;;;;485335;245;1542;-50
2022/09/26 09:18:15;;;;;;;;;;;21.30;40.80;;;;;;484946;245;1198;-51
2022/09/26 09:20:18;;;;;;;;;;;21.20;40.80;;;;;;485009;245;1260;-50
2022/09/26 09:22:18;;;;;;;;;;;21.20;40.90;;;;;;484911;246;2386;-50
2022/09/26 09:24:19;;;;;;;;;;;21.30;41.00;;;;;;485188;245;2187;-50
2022/09/26 09:26:21;;;;;;;;;;;21.30;40.90;;;;;;485021;245;1310;-51
2022/09/26 09:28:22;;;;;;;;;;;21.20;40.90;;;;;;485032;245;1196;-51
2022/09/26 09:30:23;;;;;;;;;;;21.30;40.80;;;;;;484972;245;1171;-49
2022/09/26 09:32:25;;;;;;;;;;;21.30;40.80;;;;;;484589;245;1313;-51
2022/09/26 09:34:26;;;;;;;;;;;21.30;40.80;;;;;;485022;245;1202;-51
2022/09/26 09:36:27;;;;;;;;;;;21.30;40.90;;;;;;484648;245;1236;-51
2022/09/26 09:38:29;;;;;;;;;;;21.30;40.80;;;;;;484764;245;1315;-51
2022/09/26 09:40:30;;;;;;;;;;;21.30;40.80;;;;;;484838;245;1231;-50
2022/09/26 09:42:31;;;;;;;;;;;21.30;40.70;;;;;;484687;245;1257;-51
2022/09/26 09:44:33;;;;;;;;;;;21.30;40.80;;;;;;484990;245;2199;-51
2022/09/26 09:46:34;;;;;;;;;;;21.30;40.80;;;;;;484949;245;1249;-51
2022/09/26 09:48:35;;;;;;;;;;;21.30;40.80;;;;;;484929;245;1219;-51
2022/09/26 09:50:37;;;;;;;;;;;21.30;40.80;;;;;;485119;245;1352;-50
2022/09/26 09:52:38;;;;;;;;;;;21.30;40.80;;;;;;484944;245;1202;-51
2022/09/26 09:54:39;;;;;;;;;;;21.20;40.80;;;;;;485429;245;1652;-50
2022/09/26 09:56:40;;;;;;;;;;;21.30;40.80;;;;;;485177;245;1214;-50
2022/09/26 09:58:42;;;;;;;;;;;21.30;40.80;;;;;;485454;245;1282;-52
2022/09/26 10:00:45;;;;;;;;;;;21.20;40.70;;;;;;484856;245;1353;-50
2022/09/26 10:02:45;;;;;;;;;;;21.20;40.70;;;;;;484882;246;2231;-51
2022/09/26 10:04:47;;;;;;;;;;;21.20;40.80;;;;;;485160;245;2186;-50
2022/09/26 10:06:48;;;;;;;;;;;21.20;40.80;;;;;;484997;246;2239;-50
2022/09/26 10:08:49;;;;;;;;;;;21.30;40.70;;;;;;485092;245;1180;-50
2022/09/26 10:10:50;;;;;;;;;;;21.30;40.70;;;;;;485181;245;1224;-51
2022/09/26 10:12:52;;;;;;;;;;;21.20;40.60;;;;;;484827;245;1227;-51
2022/09/26 10:14:53;;;;;;;;;;;21.30;40.80;;;;;;484969;245;1285;-50
2022/09/26 10:16:54;;;;;;;;;;;21.30;40.70;;;;;;485288;245;1231;-51
2022/09/26 10:18:59;;;;;;;;;;;21.30;40.70;;;;;;485438;245;1238;-51
2022/09/26 10:20:57;;;;;;;;;;;21.30;40.70;;;;;;484795;246;1313;-50
2022/09/26 10:23:00;;;;;;;;;;;21.30;40.70;;;;;;484957;245;1207;-51
2022/09/26 10:25:00;;;;;;;;;;;21.20;40.50;;;;;;484982;246;2199;-50
2022/09/26 10:27:01;;;;;;;;;;;21.30;40.60;;;;;;485030;245;1212;-50
2022/09/26 10:29:05;;;;;;;;;;;21.30;40.50;;;;;;484996;245;1251;-51
2022/09/26 10:31:06;;;;;;;;;;;21.30;40.50;;;;;;485056;246;2071;-50
2022/09/26 10:33:06;;;;;;;;;;;21.30;40.60;;;;;;484883;246;2309;-51
2022/09/26 10:35:07;;;;;;;;;;;21.30;40.70;;;;;;484996;245;1407;-51
2022/09/26 10:37:09;;;;;;;;;;;21.20;40.60;;;;;;485140;245;1259;-51
2022/09/26 10:41:30;;;;;;;;;;;21.20;40.80;;;;;;484989;246;1268;-50
2022/09/26 10:43:31;;;;;;;;;;;21.30;40.80;;;;;;485012;245;2211;-51
2022/09/26 10:45:32;;;;;;;;;;;21.30;40.80;;;;;;485061;245;1261;-50
2022/09/26 10:47:33;;;;;;;;;;;21.30;40.70;;;;;;484890;245;1214;-50
2022/09/26 10:49:35;;;;;;;;;;;21.30;40.70;;;;;;484710;245;1268;-51
2022/09/26 10:51:36;;;;;;;;;;;21.30;40.80;;;;;;484813;245;1185;-51
2022/09/26 10:53:37;;;;;;;;;;;21.20;40.60;;;;;;484747;245;1145;-50
2022/09/26 10:55:39;;;;;;;;;;;21.30;40.80;;;;;;484829;245;1601;-50
2022/09/26 10:57:44;;;;;;;;;;;21.20;40.70;;;;;;484688;245;1650;-50
2022/09/26 10:59:42;;;;;;;;;;;21.20;40.70;;;;;;484537;246;1452;-51
2022/09/26 11:01:42;;;;;;;;;;;21.20;40.70;;;;;;484857;245;2402;-50
2022/09/26 11:03:44;;;;;;;;;;;21.20;40.70;;;;;;484742;245;2199;-51
2022/09/26 11:05:58;;;;;;;;;;;21.20;40.70;;;;;;484850;245;1255;-50
2022/09/26 11:07:59;;;;;;;;;;;21.20;40.70;;;;;;484700;245;2196;-50
2022/09/26 11:10:00;;;;;;;;;;;21.20;40.70;;;;;;484610;245;1295;-51
2022/09/26 11:12:02;;;;;;;;;;;21.20;40.80;;;;;;484522;245;1264;-51
2022/09/26 11:14:04;;;;;;;;;;;21.20;40.80;;;;;;484649;246;2528;-51
2022/09/26 11:16:04;;;;;;;;;;;21.20;40.70;;;;;;484698;243;1425;-51
2022/09/26 11:18:06;;;;;;;;;;;21.20;40.70;;;;;;485020;245;1324;-51
2022/09/26 11:20:09;;;;;;;;;;;21.10;40.70;;;;;;484739;245;1316;-50
2022/09/26 11:22:09;;;;;;;;;;;21.20;40.70;;;;;;484646;246;2205;-51
2022/09/26 11:24:10;;;;;;;;;;;21.20;40.70;;;;;;484878;245;2231;-51
2022/09/26 11:26:11;;;;;;;;;;;21.20;40.70;;;;;;484358;245;1392;-50
2022/09/26 11:28:12;;;;;;;;;;;21.20;40.80;;;;;;484786;245;1234;-51
2022/09/26 11:30:16;;;;;;;;;;;21.20;40.70;;;;;;484815;246;1228;-50
2022/09/26 11:32:16;;;;;;;;;;;21.20;40.70;;;;;;484583;246;1509;-50
2022/09/26 11:34:16;;;;;;;;;;;21.20;40.80;;;;;;484777;245;1514;-50
2022/09/26 11:36:18;;;;;;;;;;;21.20;40.80;;;;;;484776;245;1353;-51
2022/09/26 11:38:20;;;;;;;;;;;21.20;40.80;;;;;;484819;246;1258;-50
2022/09/26 11:40:20;;;;;;;;;;;21.20;40.80;;;;;;484759;246;2252;-51
2022/09/26 11:42:23;;;;;;;;;;;21.20;40.70;;;;;;484768;245;1272;-51
2022/09/26 11:44:23;;;;;;;;;;;21.20;40.80;;;;;;484872;246;2187;-49
2022/09/26 11:46:26;;;;;;;;;;;21.20;40.70;;;;;;484687;245;1271;-50
2022/09/26 11:48:27;;;;;;;;;;;21.20;40.70;;;;;;484804;245;2337;-50
2022/09/26 11:50:27;;;;;;;;;;;21.20;40.70;;;;;;484958;245;1359;-51
2022/09/26 11:52:29;;;;;;;;;;;21.20;40.80;;;;;;485038;245;1202;-51
2022/09/26 11:54:31;;;;;;;;;;;21.20;40.80;;;;;;484997;245;1273;-51
2022/09/26 11:56:33;;;;;;;;;;;21.20;40.70;;;;;;484807;245;2280;-50
2022/09/26 11:58:38;;;;;;;;;;;21.20;40.80;;;;;;484756;245;1639;-51
2022/09/26 12:00:35;;;;;;;;;;;21.20;40.90;;;;;;484569;246;2112;-50
2022/09/26 12:02:38;;;;;;;;;;;21.20;40.90;;;;;;484730;245;1575;-50
2022/09/26 12:04:38;;;;;;;;;;;21.20;40.90;;;;;;484847;246;2168;-51
2022/09/26 12:06:40;;;;;;;;;;;21.20;40.90;;;;;;484940;245;1222;-50
2022/09/26 12:08:41;;;;;;;;;;;21.20;40.80;;;;;;484784;245;1321;-51
2022/09/26 12:10:42;;;;;;;;;;;21.20;40.80;;;;;;484946;245;1250;-51
2022/09/26 12:12:44;;;;;;;;;;;21.20;40.70;;;;;;484708;245;1296;-51
2022/09/26 12:14:45;;;;;;;;;;;21.20;40.70;;;;;;484858;245;1494;-50